»·PEaware :: N369DC KSMX-KBFL

N369DC :: KSMX-KBFL

FLIGHT INFORMATION

Flight Status: Arrived
Operator: Privately registered:
United States
More flights under this callsign
Pilot: Justin M. (20023)
Aircraft: CESSNA 172 SKYHAWK
(C172)
More flights by this aircraft type
Origin: KSMX Santa Maria Pub/Capt Hancock
United States
Destination: KBFL Meadows
United States
More flights between these airports :: More routes between these airports
Route:
File this flight plan on PilotEdge
Remarks:
Altitude:
(Current/Filed)
7,500ft
Speed:
(Current/Filed)
0kts
Departed: 01-Feb-19 11:52 AM
Arrived: 01-Feb-19 12:35 PM
Distance/Time
Traveled:
76nm/0:43
Distance/Time
To Go:
Arrived

Flight Plot

Page will automatically refresh every two minutes.


Map Options




Map Legend


Flown Route
Filed Route
Departure Airport
Arrival Airport
Navaid (VOR, NDB)
Fix

Horizontal Profiles

Position Reports

Time Latitude Longitude Heading Altitude Ground
Speed
01-Feb-19 11:42 34.900720 -120.451575 228 265ft 0kts
01-Feb-19 11:43 34.900720 -120.451575 228 265ft 0kts
01-Feb-19 11:44 34.900720 -120.451575 228 265ft 0kts
01-Feb-19 11:45 34.900720 -120.451575 228 265ft 0kts
01-Feb-19 11:46 34.900720 -120.451575 228 265ft 0kts
01-Feb-19 11:47 34.901215 -120.452636 314 265ft 13kts
01-Feb-19 11:48 34.904182 -120.456999 311 265ft 18kts
01-Feb-19 11:49 34.908171 -120.461773 316 265ft 25kts
01-Feb-19 11:50 34.908845 -120.463444 229 265ft 0kts
01-Feb-19 11:51 34.908845 -120.463444 229 265ft 0kts
01-Feb-19 11:52 34.906944 -120.462718 135 265ft 51kts
01-Feb-19 11:53 34.904978 -120.440726 64 1249ft 97kts
01-Feb-19 11:54 34.919149 -120.404538 64 1867ft 129kts
01-Feb-19 11:55 34.934788 -120.364399 64 2470ft 132kts
01-Feb-19 11:56 34.950431 -120.324211 64 3067ft 126kts
01-Feb-19 11:57 34.964099 -120.288982 64 3654ft 107kts
01-Feb-19 11:58 34.975675 -120.259262 64 4235ft 85kts
01-Feb-19 11:58 34.983244 -120.239922 64 4712ft 66kts
01-Feb-19 11:59 34.990637 -120.222956 54 5088ft 64kts
01-Feb-19 12:00 35.002226 -120.200698 57 5181ft 88kts
01-Feb-19 12:01 35.016339 -120.174713 56 5185ft 93kts
01-Feb-19 12:02 35.031159 -120.148171 55 5186ft 95kts
01-Feb-19 12:04 35.048675 -120.117686 54 5261ft 93kts
01-Feb-19 12:05 35.063964 -120.091925 54 5316ft 93kts
01-Feb-19 12:05 35.077778 -120.069315 53 5439ft 116kts
01-Feb-19 12:06 35.098564 -120.036275 52 5882ft 117kts
01-Feb-19 12:07 35.117991 -120.005309 52 6209ft 111kts
01-Feb-19 12:08 35.136356 -119.975895 53 6463ft 106kts
01-Feb-19 12:09 35.149713 -119.954352 52 6321ft 86kts
01-Feb-19 12:10 35.166572 -119.927885 52 6305ft 106kts
01-Feb-19 12:11 35.185593 -119.898570 51 6460ft 112kts
01-Feb-19 12:12 35.205200 -119.868535 51 6654ft 113kts
01-Feb-19 12:13 35.224893 -119.838490 51 6845ft 113kts
01-Feb-19 12:14 35.244620 -119.808523 51 7028ft 112kts
01-Feb-19 12:15 35.264262 -119.778799 51 7197ft 113kts
01-Feb-19 12:16 35.284262 -119.748683 50 7382ft 114kts
01-Feb-19 12:17 35.305484 -119.717295 50 7502ft 131kts
01-Feb-19 12:18 35.330325 -119.681623 49 7500ft 140kts
01-Feb-19 12:19 35.356112 -119.645438 48 7499ft 141kts
01-Feb-19 12:20 35.382384 -119.609563 47 7499ft 141kts
01-Feb-19 12:21 35.408993 -119.574212 47 7499ft 141kts
01-Feb-19 12:22 35.436015 -119.539200 46 7508ft 141kts
01-Feb-19 12:23 35.463350 -119.504666 45 7508ft 141kts
01-Feb-19 12:24 35.491938 -119.469411 44 7106ft 158kts
01-Feb-19 12:25 35.511719 -119.424680 91 6366ft 160kts
01-Feb-19 12:26 35.487301 -119.378994 126 5418ft 163kts
01-Feb-19 12:27 35.474023 -119.327092 99 4587ft 160kts
01-Feb-19 12:28 35.466089 -119.273617 99 3878ft 158kts
01-Feb-19 12:29 35.458403 -119.221840 99 3283ft 157kts
01-Feb-19 12:30 35.450568 -119.169202 99 2756ft 156kts
01-Feb-19 12:31 35.442737 -119.116924 99 2298ft 155kts
01-Feb-19 12:32 35.420179 -119.070183 128 1514ft 157kts
01-Feb-19 12:33 35.417709 -119.041294 339 872ft 76kts
01-Feb-19 12:34 35.425854 -119.050868 252 499ft 0kts
01-Feb-19 12:35 35.425848 -119.050899 261 499ft 2kts
01-Feb-19 12:36 35.428284 -119.054566 231 499ft 10kts
01-Feb-19 12:37 35.428869 -119.055791 303 499ft 0kts
01-Feb-19 12:38 35.428869 -119.055791 303 499ft 0kts
01-Feb-19 12:39 35.428869 -119.055791 303 499ft 0kts

Navigation Log

Ident Type
Flight plan parsing failed, navigation log unavailable